sensor_id;sensor_type;location;lat;lon;timestamp;P1;durP1;ratioP1;P2;durP2;ratioP2
14394;SDS011;7282;49.204;10.652;2023-04-19T00:01:44;17.67;;;14.63;;
14394;SDS011;7282;49.204;10.652;2023-04-19T00:04:11;18.07;;;14.03;;
14394;SDS011;7282;49.204;10.652;2023-04-19T00:06:39;17.07;;;13.83;;
14394;SDS011;7282;49.204;10.652;2023-04-19T00:09:07;15.57;;;13.57;;
14394;SDS011;7282;49.204;10.652;2023-04-19T00:11:34;17.13;;;14.77;;
14394;SDS011;7282;49.204;10.652;2023-04-19T00:14:01;19.13;;;14.47;;
14394;SDS011;7282;49.204;10.652;2023-04-19T00:16:28;16.60;;;14.50;;
14394;SDS011;7282;49.204;10.652;2023-04-19T00:18:54;17.23;;;13.93;;
14394;SDS011;7282;49.204;10.652;2023-04-19T00:21:21;18.90;;;14.67;;
14394;SDS011;7282;49.204;10.652;2023-04-19T00:23:48;17.60;;;14.43;;
14394;SDS011;7282;49.204;10.652;2023-04-19T00:26:14;16.37;;;13.63;;
14394;SDS011;7282;49.204;10.652;2023-04-19T00:28:41;21.00;;;16.23;;
14394;SDS011;7282;49.204;10.652;2023-04-19T00:31:08;19.00;;;15.50;;
14394;SDS011;7282;49.204;10.652;2023-04-19T00:33:34;18.83;;;15.43;;
14394;SDS011;7282;49.204;10.652;2023-04-19T00:36:01;17.83;;;14.03;;
14394;SDS011;7282;49.204;10.652;2023-04-19T00:38:28;17.93;;;14.57;;
14394;SDS011;7282;49.204;10.652;2023-04-19T00:40:54;17.53;;;14.60;;
14394;SDS011;7282;49.204;10.652;2023-04-19T00:43:21;18.03;;;15.10;;
14394;SDS011;7282;49.204;10.652;2023-04-19T00:45:48;23.90;;;17.73;;
14394;SDS011;7282;49.204;10.652;2023-04-19T00:48:15;23.27;;;16.97;;
14394;SDS011;7282;49.204;10.652;2023-04-19T00:50:46;23.13;;;16.33;;
14394;SDS011;7282;49.204;10.652;2023-04-19T00:53:10;20.03;;;16.10;;
14394;SDS011;7282;49.204;10.652;2023-04-19T00:55:37;20.40;;;14.83;;
14394;SDS011;7282;49.204;10.652;2023-04-19T00:58:06;19.27;;;15.07;;
14394;SDS011;7282;49.204;10.652;2023-04-19T01:00:33;20.60;;;16.10;;
14394;SDS011;7282;49.204;10.652;2023-04-19T01:03:00;18.77;;;15.50;;
14394;SDS011;7282;49.204;10.652;2023-04-19T01:05:27;20.80;;;16.40;;
14394;SDS011;7282;49.204;10.652;2023-04-19T01:07:54;19.73;;;14.93;;
14394;SDS011;7282;49.204;10.652;2023-04-19T01:10:21;19.37;;;14.53;;
14394;SDS011;7282;49.204;10.652;2023-04-19T01:12:47;18.63;;;15.30;;
14394;SDS011;7282;49.204;10.652;2023-04-19T01:15:14;19.27;;;15.00;;
14394;SDS011;7282;49.204;10.652;2023-04-19T01:17:41;20.50;;;15.27;;
14394;SDS011;7282;49.204;10.652;2023-04-19T01:20:08;21.90;;;15.60;;
14394;SDS011;7282;49.204;10.652;2023-04-19T01:22:34;20.03;;;14.73;;
14394;SDS011;7282;49.204;10.652;2023-04-19T01:25:03;19.10;;;15.83;;
14394;SDS011;7282;49.204;10.652;2023-04-19T01:27:29;22.63;;;16.53;;
14394;SDS011;7282;49.204;10.652;2023-04-19T01:29:56;24.17;;;16.40;;
14394;SDS011;7282;49.204;10.652;2023-04-19T01:32:23;20.87;;;16.27;;
14394;SDS011;7282;49.204;10.652;2023-04-19T01:34:51;21.80;;;15.30;;
14394;SDS011;7282;49.204;10.652;2023-04-19T01:37:18;20.50;;;15.33;;
14394;SDS011;7282;49.204;10.652;2023-04-19T01:39:45;20.90;;;15.60;;
14394;SDS011;7282;49.204;10.652;2023-04-19T01:42:11;19.87;;;15.07;;
14394;SDS011;7282;49.204;10.652;2023-04-19T01:44:38;20.33;;;16.67;;
14394;SDS011;7282;49.204;10.652;2023-04-19T01:47:05;20.77;;;15.73;;
14394;SDS011;7282;49.204;10.652;2023-04-19T01:49:31;20.63;;;16.17;;
14394;SDS011;7282;49.204;10.652;2023-04-19T01:51:58;21.87;;;16.43;;
14394;SDS011;7282;49.204;10.652;2023-04-19T01:54:25;20.33;;;15.87;;
14394;SDS011;7282;49.204;10.652;2023-04-19T01:56:52;20.00;;;15.30;;
14394;SDS011;7282;49.204;10.652;2023-04-19T01:59:19;22.30;;;16.60;;
14394;SDS011;7282;49.204;10.652;2023-04-19T02:01:45;21.03;;;15.93;;
14394;SDS011;7282;49.204;10.652;2023-04-19T02:04:12;19.90;;;15.63;;
14394;SDS011;7282;49.204;10.652;2023-04-19T02:06:39;19.73;;;16.00;;
14394;SDS011;7282;49.204;10.652;2023-04-19T02:09:06;21.67;;;16.10;;
14394;SDS011;7282;49.204;10.652;2023-04-19T02:11:33;20.50;;;16.73;;
14394;SDS011;7282;49.204;10.652;2023-04-19T02:14:00;20.33;;;16.17;;
14394;SDS011;7282;49.204;10.652;2023-04-19T02:16:26;23.83;;;17.37;;
14394;SDS011;7282;49.204;10.652;2023-04-19T02:18:53;21.10;;;16.73;;
14394;SDS011;7282;49.204;10.652;2023-04-19T02:21:20;21.50;;;16.13;;
14394;SDS011;7282;49.204;10.652;2023-04-19T02:23:48;21.33;;;15.93;;
14394;SDS011;7282;49.204;10.652;2023-04-19T02:26:15;19.70;;;15.90;;
14394;SDS011;7282;49.204;10.652;2023-04-19T02:28:42;22.30;;;16.07;;
14394;SDS011;7282;49.204;10.652;2023-04-19T02:31:09;23.40;;;16.77;;
14394;SDS011;7282;49.204;10.652;2023-04-19T02:33:36;20.47;;;16.20;;
14394;SDS011;7282;49.204;10.652;2023-04-19T02:36:02;22.30;;;16.53;;
14394;SDS011;7282;49.204;10.652;2023-04-19T02:38:29;23.93;;;15.97;;
14394;SDS011;7282;49.204;10.652;2023-04-19T02:40:56;22.53;;;15.40;;
14394;SDS011;7282;49.204;10.652;2023-04-19T02:43:23;24.83;;;17.33;;
14394;SDS011;7282;49.204;10.652;2023-04-19T02:45:50;22.50;;;16.93;;
14394;SDS011;7282;49.204;10.652;2023-04-19T02:48:16;23.23;;;16.87;;
14394;SDS011;7282;49.204;10.652;2023-04-19T02:50:43;19.93;;;15.37;;
14394;SDS011;7282;49.204;10.652;2023-04-19T02:53:10;20.53;;;15.53;;
14394;SDS011;7282;49.204;10.652;2023-04-19T02:55:37;21.40;;;16.50;;
14394;SDS011;7282;49.204;10.652;2023-04-19T02:58:03;21.57;;;15.90;;
14394;SDS011;7282;49.204;10.652;2023-04-19T03:00:30;26.87;;;18.60;;
14394;SDS011;7282;49.204;10.652;2023-04-19T03:02:57;27.60;;;17.17;;
14394;SDS011;7282;49.204;10.652;2023-04-19T03:05:24;26.07;;;17.97;;
14394;SDS011;7282;49.204;10.652;2023-04-19T03:07:50;23.47;;;17.30;;
14394;SDS011;7282;49.204;10.652;2023-04-19T03:10:17;24.70;;;16.67;;
14394;SDS011;7282;49.204;10.652;2023-04-19T03:12:44;21.43;;;15.63;;
14394;SDS011;7282;49.204;10.652;2023-04-19T03:15:10;22.00;;;16.33;;
14394;SDS011;7282;49.204;10.652;2023-04-19T03:17:37;22.33;;;17.00;;
14394;SDS011;7282;49.204;10.652;2023-04-19T03:20:04;21.40;;;16.40;;
14394;SDS011;7282;49.204;10.652;2023-04-19T03:22:33;23.40;;;16.53;;
14394;SDS011;7282;49.204;10.652;2023-04-19T03:25:00;22.90;;;17.27;;
14394;SDS011;7282;49.204;10.652;2023-04-19T03:27:26;21.57;;;16.47;;
14394;SDS011;7282;49.204;10.652;2023-04-19T03:29:54;21.07;;;16.53;;
14394;SDS011;7282;49.204;10.652;2023-04-19T03:32:21;20.63;;;16.30;;
14394;SDS011;7282;49.204;10.652;2023-04-19T03:34:48;20.77;;;16.47;;
14394;SDS011;7282;49.204;10.652;2023-04-19T03:37:15;20.97;;;17.37;;
14394;SDS011;7282;49.204;10.652;2023-04-19T03:39:41;21.20;;;16.40;;
14394;SDS011;7282;49.204;10.652;2023-04-19T03:42:08;21.53;;;17.07;;
14394;SDS011;7282;49.204;10.652;2023-04-19T03:44:35;23.70;;;17.13;;
14394;SDS011;7282;49.204;10.652;2023-04-19T03:47:02;22.23;;;16.67;;
14394;SDS011;7282;49.204;10.652;2023-04-19T03:49:29;22.63;;;17.03;;
14394;SDS011;7282;49.204;10.652;2023-04-19T03:51:55;23.17;;;16.23;;
14394;SDS011;7282;49.204;10.652;2023-04-19T03:54:22;23.00;;;16.70;;
14394;SDS011;7282;49.204;10.652;2023-04-19T03:56:49;21.60;;;16.60;;
14394;SDS011;7282;49.204;10.652;2023-04-19T03:59:15;22.67;;;16.97;;
14394;SDS011;7282;49.204;10.652;2023-04-19T04:01:42;25.63;;;18.40;;
14394;SDS011;7282;49.204;10.652;2023-04-19T04:04:09;22.27;;;17.23;;
14394;SDS011;7282;49.204;10.652;2023-04-19T04:06:37;26.27;;;17.67;;
14394;SDS011;7282;49.204;10.652;2023-04-19T04:09:04;21.47;;;17.23;;
14394;SDS011;7282;49.204;10.652;2023-04-19T04:11:30;21.73;;;17.53;;
14394;SDS011;7282;49.204;10.652;2023-04-19T04:13:57;24.37;;;17.67;;
14394;SDS011;7282;49.204;10.652;2023-04-19T04:16:24;24.93;;;17.17;;
14394;SDS011;7282;49.204;10.652;2023-04-19T04:18:50;22.67;;;17.73;;
14394;SDS011;7282;49.204;10.652;2023-04-19T04:21:17;21.60;;;16.57;;
14394;SDS011;7282;49.204;10.652;2023-04-19T04:23:44;23.17;;;17.57;;
14394;SDS011;7282;49.204;10.652;2023-04-19T04:26:12;22.40;;;16.87;;
14394;SDS011;7282;49.204;10.652;2023-04-19T04:28:38;21.93;;;17.23;;
14394;SDS011;7282;49.204;10.652;2023-04-19T04:31:05;20.73;;;16.50;;
14394;SDS011;7282;49.204;10.652;2023-04-19T04:33:32;21.40;;;16.43;;
14394;SDS011;7282;49.204;10.652;2023-04-19T04:35:59;20.30;;;16.03;;
14394;SDS011;7282;49.204;10.652;2023-04-19T04:38:25;21.10;;;16.27;;
14394;SDS011;7282;49.204;10.652;2023-04-19T04:40:53;21.17;;;16.97;;
14394;SDS011;7282;49.204;10.652;2023-04-19T04:43:20;22.50;;;17.00;;
14394;SDS011;7282;49.204;10.652;2023-04-19T04:45:47;22.10;;;17.43;;
14394;SDS011;7282;49.204;10.652;2023-04-19T04:48:14;23.20;;;16.87;;
14394;SDS011;7282;49.204;10.652;2023-04-19T04:50:41;20.93;;;16.20;;
14394;SDS011;7282;49.204;10.652;2023-04-19T04:53:07;21.73;;;15.67;;
14394;SDS011;7282;49.204;10.652;2023-04-19T04:55:34;20.27;;;15.93;;
14394;SDS011;7282;49.204;10.652;2023-04-19T04:58:01;22.03;;;16.80;;
14394;SDS011;7282;49.204;10.652;2023-04-19T05:00:30;22.50;;;16.80;;
14394;SDS011;7282;49.204;10.652;2023-04-19T05:02:57;19.20;;;15.77;;
14394;SDS011;7282;49.204;10.652;2023-04-19T05:05:24;22.13;;;16.23;;
14394;SDS011;7282;49.204;10.652;2023-04-19T05:07:50;18.77;;;15.70;;
14394;SDS011;7282;49.204;10.652;2023-04-19T05:10:17;20.73;;;17.13;;
14394;SDS011;7282;49.204;10.652;2023-04-19T05:12:44;20.23;;;16.60;;
14394;SDS011;7282;49.204;10.652;2023-04-19T05:15:11;22.27;;;16.73;;
14394;SDS011;7282;49.204;10.652;2023-04-19T05:17:37;20.23;;;15.53;;
14394;SDS011;7282;49.204;10.652;2023-04-19T05:20:04;19.73;;;15.90;;
14394;SDS011;7282;49.204;10.652;2023-04-19T05:22:31;21.80;;;16.67;;
14394;SDS011;7282;49.204;10.652;2023-04-19T05:24:58;22.90;;;16.97;;
14394;SDS011;7282;49.204;10.652;2023-04-19T05:27:25;22.37;;;15.53;;
14394;SDS011;7282;49.204;10.652;2023-04-19T05:29:51;20.13;;;15.87;;
14394;SDS011;7282;49.204;10.652;2023-04-19T05:32:18;22.03;;;16.83;;
14394;SDS011;7282;49.204;10.652;2023-04-19T05:34:45;20.43;;;16.53;;
14394;SDS011;7282;49.204;10.652;2023-04-19T05:37:12;21.83;;;16.97;;
14394;SDS011;7282;49.204;10.652;2023-04-19T05:39:39;23.40;;;16.87;;
14394;SDS011;7282;49.204;10.652;2023-04-19T05:42:05;23.00;;;16.60;;
14394;SDS011;7282;49.204;10.652;2023-04-19T05:44:32;22.40;;;17.23;;
14394;SDS011;7282;49.204;10.652;2023-04-19T05:46:59;18.43;;;15.17;;
14394;SDS011;7282;49.204;10.652;2023-04-19T05:49:26;19.90;;;15.27;;
14394;SDS011;7282;49.204;10.652;2023-04-19T05:51:53;20.17;;;15.13;;
14394;SDS011;7282;49.204;10.652;2023-04-19T05:54:20;21.57;;;15.67;;
14394;SDS011;7282;49.204;10.652;2023-04-19T05:56:47;18.47;;;14.27;;
14394;SDS011;7282;49.204;10.652;2023-04-19T05:59:13;21.60;;;15.33;;
14394;SDS011;7282;49.204;10.652;2023-04-19T06:01:40;19.33;;;15.33;;
14394;SDS011;7282;49.204;10.652;2023-04-19T06:04:07;19.60;;;15.03;;
14394;SDS011;7282;49.204;10.652;2023-04-19T06:06:34;20.43;;;15.87;;
14394;SDS011;7282;49.204;10.652;2023-04-19T06:09:00;18.97;;;15.47;;
14394;SDS011;7282;49.204;10.652;2023-04-19T06:11:27;21.67;;;15.70;;
14394;SDS011;7282;49.204;10.652;2023-04-19T06:13:55;19.40;;;15.27;;
14394;SDS011;7282;49.204;10.652;2023-04-19T06:16:22;18.70;;;14.60;;
14394;SDS011;7282;49.204;10.652;2023-04-19T06:18:48;20.20;;;14.80;;
14394;SDS011;7282;49.204;10.652;2023-04-19T06:21:15;18.37;;;14.27;;
14394;SDS011;7282;49.204;10.652;2023-04-19T06:23:42;18.67;;;15.40;;
14394;SDS011;7282;49.204;10.652;2023-04-19T06:26:09;18.10;;;15.10;;
14394;SDS011;7282;49.204;10.652;2023-04-19T06:28:35;19.20;;;16.03;;
14394;SDS011;7282;49.204;10.652;2023-04-19T06:31:02;20.43;;;16.07;;
14394;SDS011;7282;49.204;10.652;2023-04-19T06:33:29;18.57;;;15.00;;
14394;SDS011;7282;49.204;10.652;2023-04-19T06:35:55;18.27;;;14.87;;
14394;SDS011;7282;49.204;10.652;2023-04-19T06:38:22;19.30;;;15.57;;
14394;SDS011;7282;49.204;10.652;2023-04-19T06:40:49;21.20;;;16.00;;
14394;SDS011;7282;49.204;10.652;2023-04-19T06:43:15;19.77;;;16.07;;
14394;SDS011;7282;49.204;10.652;2023-04-19T06:45:42;19.63;;;16.40;;
14394;SDS011;7282;49.204;10.652;2023-04-19T06:48:09;19.13;;;15.67;;
14394;SDS011;7282;49.204;10.652;2023-04-19T06:50:36;17.83;;;15.73;;
14394;SDS011;7282;49.204;10.652;2023-04-19T06:53:03;19.27;;;15.70;;
14394;SDS011;7282;49.204;10.652;2023-04-19T06:55:29;20.77;;;16.07;;
14394;SDS011;7282;49.204;10.652;2023-04-19T06:57:56;18.40;;;14.83;;
14394;SDS011;7282;49.204;10.652;2023-04-19T07:00:23;18.23;;;14.60;;
14394;SDS011;7282;49.204;10.652;2023-04-19T07:02:50;19.97;;;16.27;;
14394;SDS011;7282;49.204;10.652;2023-04-19T07:05:17;18.37;;;15.60;;
14394;SDS011;7282;49.204;10.652;2023-04-19T07:07:44;19.23;;;16.30;;
14394;SDS011;7282;49.204;10.652;2023-04-19T07:10:10;18.53;;;15.90;;
14394;SDS011;7282;49.204;10.652;2023-04-19T07:12:37;23.93;;;17.87;;
14394;SDS011;7282;49.204;10.652;2023-04-19T07:15:04;19.50;;;15.27;;
14394;SDS011;7282;49.204;10.652;2023-04-19T07:17:32;22.63;;;16.90;;
14394;SDS011;7282;49.204;10.652;2023-04-19T07:19:59;21.77;;;17.33;;
14394;SDS011;7282;49.204;10.652;2023-04-19T07:22:26;22.07;;;17.57;;
14394;SDS011;7282;49.204;10.652;2023-04-19T07:24:53;22.33;;;18.13;;
14394;SDS011;7282;49.204;10.652;2023-04-19T07:27:19;20.47;;;18.07;;
14394;SDS011;7282;49.204;10.652;2023-04-19T07:29:46;21.43;;;18.00;;
14394;SDS011;7282;49.204;10.652;2023-04-19T07:32:13;21.60;;;17.60;;
14394;SDS011;7282;49.204;10.652;2023-04-19T07:34:40;21.40;;;17.43;;
14394;SDS011;7282;49.204;10.652;2023-04-19T07:37:07;21.57;;;18.17;;
14394;SDS011;7282;49.204;10.652;2023-04-19T07:39:34;19.57;;;17.50;;
14394;SDS011;7282;49.204;10.652;2023-04-19T07:42:00;20.13;;;17.03;;
14394;SDS011;7282;49.204;10.652;2023-04-19T07:44:27;20.63;;;16.20;;
14394;SDS011;7282;49.204;10.652;2023-04-19T07:46:54;19.73;;;17.27;;
14394;SDS011;7282;49.204;10.652;2023-04-19T07:49:21;21.10;;;16.60;;
14394;SDS011;7282;49.204;10.652;2023-04-19T07:51:47;18.50;;;16.27;;
14394;SDS011;7282;49.204;10.652;2023-04-19T07:54:14;19.87;;;16.13;;
14394;SDS011;7282;49.204;10.652;2023-04-19T07:56:45;19.57;;;15.53;;
14394;SDS011;7282;49.204;10.652;2023-04-19T07:59:12;19.17;;;17.13;;
14394;SDS011;7282;49.204;10.652;2023-04-19T08:01:38;18.50;;;16.50;;
14394;SDS011;7282;49.204;10.652;2023-04-19T08:04:05;19.27;;;16.00;;
14394;SDS011;7282;49.204;10.652;2023-04-19T08:06:32;19.93;;;16.80;;
14394;SDS011;7282;49.204;10.652;2023-04-19T08:08:59;20.50;;;17.37;;
14394;SDS011;7282;49.204;10.652;2023-04-19T08:11:26;19.00;;;16.50;;
14394;SDS011;7282;49.204;10.652;2023-04-19T08:13:53;20.27;;;17.67;;
14394;SDS011;7282;49.204;10.652;2023-04-19T08:16:19;22.10;;;17.93;;
14394;SDS011;7282;49.204;10.652;2023-04-19T08:18:46;19.57;;;17.23;;
14394;SDS011;7282;49.204;10.652;2023-04-19T08:21:14;20.27;;;17.90;;
14394;SDS011;7282;49.204;10.652;2023-04-19T08:23:41;20.47;;;17.23;;
14394;SDS011;7282;49.204;10.652;2023-04-19T08:26:08;19.47;;;16.87;;
14394;SDS011;7282;49.204;10.652;2023-04-19T08:28:35;22.07;;;17.83;;
14394;SDS011;7282;49.204;10.652;2023-04-19T08:31:04;20.83;;;18.17;;
14394;SDS011;7282;49.204;10.652;2023-04-19T08:33:30;20.57;;;18.37;;
14394;SDS011;7282;49.204;10.652;2023-04-19T08:35:57;23.77;;;18.63;;
14394;SDS011;7282;49.204;10.652;2023-04-19T08:38:24;21.67;;;18.67;;
14394;SDS011;7282;49.204;10.652;2023-04-19T08:40:51;24.00;;;18.63;;
14394;SDS011;7282;49.204;10.652;2023-04-19T08:43:18;23.53;;;20.57;;
14394;SDS011;7282;49.204;10.652;2023-04-19T08:45:52;23.83;;;20.37;;
14394;SDS011;7282;49.204;10.652;2023-04-19T08:48:16;25.23;;;20.67;;
14394;SDS011;7282;49.204;10.652;2023-04-19T08:50:43;23.63;;;19.00;;
14394;SDS011;7282;49.204;10.652;2023-04-19T08:53:12;26.67;;;20.77;;
14394;SDS011;7282;49.204;10.652;2023-04-19T08:55:40;25.60;;;20.73;;
14394;SDS011;7282;49.204;10.652;2023-04-19T08:58:07;27.37;;;22.07;;
14394;SDS011;7282;49.204;10.652;2023-04-19T09:00:36;25.20;;;20.57;;
14394;SDS011;7282;49.204;10.652;2023-04-19T09:03:03;26.60;;;22.07;;
14394;SDS011;7282;49.204;10.652;2023-04-19T09:05:31;29.43;;;22.93;;
14394;SDS011;7282;49.204;10.652;2023-04-19T09:10:51;37.17;;;25.63;;
14394;SDS011;7282;49.204;10.652;2023-04-19T09:13:11;35.97;;;26.83;;
14394;SDS011;7282;49.204;10.652;2023-04-19T09:15:39;34.40;;;26.90;;
14394;SDS011;7282;49.204;10.652;2023-04-19T09:18:08;33.50;;;26.07;;
14394;SDS011;7282;49.204;10.652;2023-04-19T09:20:38;37.77;;;26.67;;
14394;SDS011;7282;49.204;10.652;2023-04-19T09:23:07;35.83;;;25.87;;
14394;SDS011;7282;49.204;10.652;2023-04-19T09:25:34;31.90;;;24.20;;
14394;SDS011;7282;49.204;10.652;2023-04-19T09:28:10;33.47;;;24.33;;
14394;SDS011;7282;49.204;10.652;2023-04-19T09:30:38;29.23;;;22.30;;
14394;SDS011;7282;49.204;10.652;2023-04-19T09:33:05;26.00;;;19.43;;
14394;SDS011;7282;49.204;10.652;2023-04-19T09:35:44;24.13;;;20.13;;
14394;SDS011;7282;49.204;10.652;2023-04-19T09:38:07;25.10;;;20.00;;
14394;SDS011;7282;49.204;10.652;2023-04-19T09:40:34;27.67;;;22.73;;
14394;SDS011;7282;49.204;10.652;2023-04-19T09:43:01;30.30;;;22.33;;
14394;SDS011;7282;49.204;10.652;2023-04-19T09:45:38;30.47;;;23.00;;
14394;SDS011;7282;49.204;10.652;2023-04-19T09:48:06;31.27;;;23.90;;
14394;SDS011;7282;49.204;10.652;2023-04-19T09:50:33;28.93;;;24.20;;
14394;SDS011;7282;49.204;10.652;2023-04-19T09:52:59;29.73;;;23.53;;
14394;SDS011;7282;49.204;10.652;2023-04-19T09:55:27;30.73;;;24.30;;
14394;SDS011;7282;49.204;10.652;2023-04-19T09:57:53;29.83;;;24.10;;
14394;SDS011;7282;49.204;10.652;2023-04-19T10:00:21;30.87;;;23.17;;
14394;SDS011;7282;49.204;10.652;2023-04-19T10:02:50;34.43;;;25.03;;
14394;SDS011;7282;49.204;10.652;2023-04-19T10:05:18;30.43;;;22.73;;
14394;SDS011;7282;49.204;10.652;2023-04-19T10:07:46;27.77;;;22.87;;
14394;SDS011;7282;49.204;10.652;2023-04-19T10:10:13;28.67;;;22.13;;
14394;SDS011;7282;49.204;10.652;2023-04-19T10:12:41;28.70;;;23.60;;
14394;SDS011;7282;49.204;10.652;2023-04-19T10:15:09;26.53;;;21.83;;
14394;SDS011;7282;49.204;10.652;2023-04-19T10:17:36;26.00;;;21.80;;
14394;SDS011;7282;49.204;10.652;2023-04-19T10:20:05;26.07;;;21.30;;
14394;SDS011;7282;49.204;10.652;2023-04-19T10:22:33;23.60;;;20.20;;
14394;SDS011;7282;49.204;10.652;2023-04-19T10:25:09;23.57;;;19.93;;
14394;SDS011;7282;49.204;10.652;2023-04-19T10:27:36;23.93;;;19.63;;
14394;SDS011;7282;49.204;10.652;2023-04-19T10:30:03;20.83;;;17.97;;
14394;SDS011;7282;49.204;10.652;2023-04-19T10:32:41;20.33;;;16.60;;
14394;SDS011;7282;49.204;10.652;2023-04-19T10:35:01;21.80;;;18.00;;
14394;SDS011;7282;49.204;10.652;2023-04-19T10:37:29;20.43;;;17.83;;
14394;SDS011;7282;49.204;10.652;2023-04-19T10:39:56;18.23;;;15.83;;
14394;SDS011;7282;49.204;10.652;2023-04-19T10:42:23;20.97;;;16.20;;
14394;SDS011;7282;49.204;10.652;2023-04-19T10:47:44;19.53;;;16.57;;
14394;SDS011;7282;49.204;10.652;2023-04-19T10:50:11;18.63;;;15.70;;
14394;SDS011;7282;49.204;10.652;2023-04-19T10:52:37;19.17;;;16.23;;
14394;SDS011;7282;49.204;10.652;2023-04-19T10:55:04;18.50;;;15.50;;
14394;SDS011;7282;49.204;10.652;2023-04-19T10:57:59;16.60;;;14.20;;
14394;SDS011;7282;49.204;10.652;2023-04-19T11:00:18;17.27;;;15.27;;
14394;SDS011;7282;49.204;10.652;2023-04-19T11:02:46;17.87;;;14.77;;
14394;SDS011;7282;49.204;10.652;2023-04-19T11:05:13;15.90;;;14.17;;
14394;SDS011;7282;49.204;10.652;2023-04-19T11:07:40;16.73;;;14.93;;
14394;SDS011;7282;49.204;10.652;2023-04-19T11:10:07;18.23;;;15.33;;
14394;SDS011;7282;49.204;10.652;2023-04-19T11:12:34;16.67;;;14.90;;
14394;SDS011;7282;49.204;10.652;2023-04-19T11:15:01;18.27;;;15.20;;
14394;SDS011;7282;49.204;10.652;2023-04-19T11:17:29;17.33;;;14.47;;
14394;SDS011;7282;49.204;10.652;2023-04-19T11:19:57;17.23;;;14.37;;
14394;SDS011;7282;49.204;10.652;2023-04-19T11:22:30;17.70;;;14.33;;
14394;SDS011;7282;49.204;10.652;2023-04-19T11:27:44;17.00;;;14.47;;
14394;SDS011;7282;49.204;10.652;2023-04-19T11:30:12;17.90;;;14.27;;
14394;SDS011;7282;49.204;10.652;2023-04-19T11:32:45;16.33;;;13.27;;
14394;SDS011;7282;49.204;10.652;2023-04-19T11:35:13;15.77;;;13.97;;
14394;SDS011;7282;49.204;10.652;2023-04-19T11:37:40;17.33;;;13.83;;
14394;SDS011;7282;49.204;10.652;2023-04-19T11:40:07;14.93;;;13.20;;
14394;SDS011;7282;49.204;10.652;2023-04-19T11:42:34;14.43;;;13.03;;
14394;SDS011;7282;49.204;10.652;2023-04-19T11:45:01;13.80;;;12.10;;
14394;SDS011;7282;49.204;10.652;2023-04-19T11:47:28;14.73;;;12.43;;
14394;SDS011;7282;49.204;10.652;2023-04-19T11:49:55;13.17;;;11.77;;
14394;SDS011;7282;49.204;10.652;2023-04-19T11:52:23;12.37;;;11.13;;
14394;SDS011;7282;49.204;10.652;2023-04-19T11:54:54;13.63;;;10.93;;
14394;SDS011;7282;49.204;10.652;2023-04-19T11:57:30;12.57;;;10.50;;
14394;SDS011;7282;49.204;10.652;2023-04-19T12:00:01;12.73;;;11.43;;
14394;SDS011;7282;49.204;10.652;2023-04-19T12:02:30;11.60;;;10.07;;
14394;SDS011;7282;49.204;10.652;2023-04-19T12:05:06;11.83;;;10.50;;
14394;SDS011;7282;49.204;10.652;2023-04-19T12:07:28;11.57;;;9.50;;
14394;SDS011;7282;49.204;10.652;2023-04-19T12:09:55;12.93;;;10.27;;
14394;SDS011;7282;49.204;10.652;2023-04-19T12:12:31;10.63;;;9.53;;
14394;SDS011;7282;49.204;10.652;2023-04-19T12:14:58;10.63;;;9.50;;
14394;SDS011;7282;49.204;10.652;2023-04-19T12:17:25;10.00;;;8.97;;
14394;SDS011;7282;49.204;10.652;2023-04-19T12:19:51;9.27;;;8.33;;
14394;SDS011;7282;49.204;10.652;2023-04-19T12:22:18;10.33;;;9.17;;
14394;SDS011;7282;49.204;10.652;2023-04-19T12:24:50;9.23;;;8.23;;
14394;SDS011;7282;49.204;10.652;2023-04-19T12:27:18;9.73;;;8.73;;
14394;SDS011;7282;49.204;10.652;2023-04-19T12:29:45;8.80;;;7.93;;
14394;SDS011;7282;49.204;10.652;2023-04-19T12:32:11;9.37;;;7.80;;
14394;SDS011;7282;49.204;10.652;2023-04-19T12:34:40;8.70;;;7.20;;
14394;SDS011;7282;49.204;10.652;2023-04-19T12:37:07;9.13;;;8.00;;
14394;SDS011;7282;49.204;10.652;2023-04-19T12:39:34;9.13;;;8.23;;
14394;SDS011;7282;49.204;10.652;2023-04-19T12:42:01;10.13;;;7.90;;
14394;SDS011;7282;49.204;10.652;2023-04-19T12:44:27;8.63;;;7.73;;
14394;SDS011;7282;49.204;10.652;2023-04-19T12:46:54;9.57;;;8.33;;
14394;SDS011;7282;49.204;10.652;2023-04-19T12:49:22;9.53;;;7.70;;
14394;SDS011;7282;49.204;10.652;2023-04-19T12:51:49;8.73;;;7.80;;
14394;SDS011;7282;49.204;10.652;2023-04-19T12:54:16;9.07;;;8.13;;
14394;SDS011;7282;49.204;10.652;2023-04-19T12:56:42;8.67;;;7.23;;
14394;SDS011;7282;49.204;10.652;2023-04-19T12:59:09;10.60;;;8.30;;
14394;SDS011;7282;49.204;10.652;2023-04-19T13:01:36;9.03;;;8.13;;
14394;SDS011;7282;49.204;10.652;2023-04-19T13:04:03;7.80;;;7.10;;
14394;SDS011;7282;49.204;10.652;2023-04-19T13:06:29;7.97;;;7.00;;
14394;SDS011;7282;49.204;10.652;2023-04-19T13:08:56;7.47;;;6.67;;
14394;SDS011;7282;49.204;10.652;2023-04-19T13:11:23;7.63;;;6.87;;
14394;SDS011;7282;49.204;10.652;2023-04-19T13:13:50;7.43;;;6.73;;
14394;SDS011;7282;49.204;10.652;2023-04-19T13:16:17;7.53;;;6.47;;
14394;SDS011;7282;49.204;10.652;2023-04-19T13:18:44;9.80;;;6.67;;
14394;SDS011;7282;49.204;10.652;2023-04-19T13:21:11;6.67;;;5.50;;
14394;SDS011;7282;49.204;10.652;2023-04-19T13:23:38;6.63;;;6.00;;
14394;SDS011;7282;49.204;10.652;2023-04-19T13:26:05;7.20;;;6.07;;
14394;SDS011;7282;49.204;10.652;2023-04-19T13:28:31;6.87;;;6.00;;
14394;SDS011;7282;49.204;10.652;2023-04-19T13:31:00;7.13;;;6.10;;
14394;SDS011;7282;49.204;10.652;2023-04-19T13:33:27;6.70;;;6.00;;
14394;SDS011;7282;49.204;10.652;2023-04-19T13:35:54;5.70;;;5.10;;
14394;SDS011;7282;49.204;10.652;2023-04-19T13:38:21;6.00;;;4.00;;
14394;SDS011;7282;49.204;10.652;2023-04-19T13:40:48;4.90;;;4.43;;
14394;SDS011;7282;49.204;10.652;2023-04-19T13:43:15;6.23;;;4.83;;
14394;SDS011;7282;49.204;10.652;2023-04-19T13:45:42;4.77;;;4.33;;
14394;SDS011;7282;49.204;10.652;2023-04-19T13:48:09;4.23;;;3.83;;
14394;SDS011;7282;49.204;10.652;2023-04-19T13:50:35;4.17;;;3.80;;
14394;SDS011;7282;49.204;10.652;2023-04-19T13:53:02;3.43;;;3.13;;
14394;SDS011;7282;49.204;10.652;2023-04-19T13:55:29;4.23;;;3.17;;
14394;SDS011;7282;49.204;10.652;2023-04-19T13:57:55;3.10;;;2.77;;
14394;SDS011;7282;49.204;10.652;2023-04-19T14:00:22;4.10;;;2.97;;
14394;SDS011;7282;49.204;10.652;2023-04-19T14:02:49;2.27;;;2.07;;
14394;SDS011;7282;49.204;10.652;2023-04-19T14:05:16;3.00;;;2.40;;
14394;SDS011;7282;49.204;10.652;2023-04-19T14:07:42;2.53;;;2.33;;
14394;SDS011;7282;49.204;10.652;2023-04-19T14:10:09;4.23;;;2.60;;
14394;SDS011;7282;49.204;10.652;2023-04-19T14:12:36;2.63;;;2.20;;
14394;SDS011;7282;49.204;10.652;2023-04-19T14:15:03;3.40;;;2.30;;
14394;SDS011;7282;49.204;10.652;2023-04-19T14:17:29;2.30;;;2.07;;
14394;SDS011;7282;49.204;10.652;2023-04-19T14:19:56;2.60;;;2.10;;
14394;SDS011;7282;49.204;10.652;2023-04-19T14:22:23;2.03;;;1.83;;
14394;SDS011;7282;49.204;10.652;2023-04-19T14:24:49;2.97;;;2.63;;
14394;SDS011;7282;49.204;10.652;2023-04-19T14:27:16;2.20;;;2.00;;
14394;SDS011;7282;49.204;10.652;2023-04-19T14:29:44;2.80;;;2.50;;
14394;SDS011;7282;49.204;10.652;2023-04-19T14:32:10;5.10;;;2.53;;
14394;SDS011;7282;49.204;10.652;2023-04-19T14:34:37;3.73;;;2.60;;